createdAt,value
2023-10-09T00:01:39.848Z,15.85
2023-10-09T00:04:25.655Z,15.83
2023-10-09T00:07:12.209Z,15.81
2023-10-09T00:09:58.501Z,15.78
2023-10-09T00:12:44.950Z,15.76
2023-10-09T00:15:34.716Z,15.73
2023-10-09T00:18:30.030Z,15.71
2023-10-09T00:21:21.773Z,15.62
2023-10-09T00:24:14.496Z,15.57
2023-10-09T00:27:13.623Z,15.51
2023-10-09T00:30:00.550Z,15.53
2023-10-09T00:32:53.509Z,15.51
2023-10-09T00:35:45.468Z,15.52
2023-10-09T00:38:35.886Z,15.48
2023-10-09T00:41:25.915Z,15.41
2023-10-09T00:44:12.434Z,15.35
2023-10-09T00:47:08.647Z,15.30
2023-10-09T00:50:02.402Z,15.27
2023-10-09T00:52:52.573Z,15.25
2023-10-09T00:55:52.595Z,15.25
2023-10-09T00:58:38.541Z,15.24
2023-10-09T01:01:35.453Z,15.21
2023-10-09T01:04:21.482Z,15.24
2023-10-09T01:07:16.875Z,15.29
2023-10-09T01:10:17.295Z,15.27
2023-10-09T01:13:04.394Z,15.25
2023-10-09T01:15:49.878Z,15.24
2023-10-09T01:18:39.792Z,15.23
2023-10-09T01:21:26.378Z,15.21
2023-10-09T01:24:11.871Z,15.20
2023-10-09T01:27:00.375Z,15.18
2023-10-09T01:29:49.285Z,15.18
2023-10-09T01:32:36.026Z,15.16
2023-10-09T01:35:22.406Z,15.17
2023-10-09T01:38:14.276Z,15.18
2023-10-09T01:41:08.993Z,15.17
2023-10-09T01:44:01.852Z,15.16
2023-10-09T01:46:48.128Z,15.14
2023-10-09T01:49:44.734Z,15.10
2023-10-09T01:52:31.387Z,15.07
2023-10-09T01:55:37.117Z,15.03
2023-10-09T01:58:22.495Z,15.01
2023-10-09T02:01:07.993Z,14.99
2023-10-09T02:03:53.806Z,14.97
2023-10-09T02:06:39.182Z,14.93
2023-10-09T02:09:32.117Z,14.92
2023-10-09T02:12:19.092Z,14.89
2023-10-09T02:15:17.015Z,14.89
2023-10-09T02:18:17.739Z,14.87
2023-10-09T02:21:06.135Z,14.90
2023-10-09T02:23:51.906Z,14.93
2023-10-09T02:26:40.104Z,14.96
2023-10-09T02:29:25.857Z,14.99
2023-10-09T02:32:26.922Z,14.99
2023-10-09T02:35:32.899Z,15.00
2023-10-09T02:38:19.164Z,15.02
2023-10-09T02:41:05.107Z,15.05
2023-10-09T02:43:56.638Z,15.07
2023-10-09T02:46:42.085Z,15.08
2023-10-09T02:49:28.391Z,15.08
2023-10-09T02:52:18.432Z,15.06
2023-10-09T02:55:09.318Z,15.04
2023-10-09T02:58:07.240Z,14.99
2023-10-09T03:00:53.023Z,14.94
2023-10-09T03:03:39.700Z,14.89
2023-10-09T03:06:29.978Z,14.85
2023-10-09T03:09:18.555Z,14.81
2023-10-09T03:12:06.933Z,14.79
2023-10-09T03:14:52.551Z,14.79
2023-10-09T03:17:38.062Z,14.77
2023-10-09T03:20:23.443Z,14.76
2023-10-09T03:23:11.040Z,14.76
2023-10-09T03:26:14.988Z,14.75
2023-10-09T03:29:11.634Z,14.72
2023-10-09T03:31:58.020Z,14.70
2023-10-09T03:34:45.077Z,14.66
2023-10-09T03:37:36.697Z,14.65
2023-10-09T03:40:23.180Z,14.61
2023-10-09T03:43:11.694Z,14.59
2023-10-09T03:45:58.544Z,14.56
2023-10-09T03:48:47.827Z,14.56
2023-10-09T03:51:33.881Z,14.57
2023-10-09T03:54:23.428Z,14.55
2023-10-09T03:57:09.185Z,14.53
2023-10-09T03:59:56.770Z,14.52
2023-10-09T04:02:43.333Z,14.52
2023-10-09T04:05:29.834Z,14.50
2023-10-09T04:08:30.219Z,14.50
2023-10-09T04:11:18.714Z,14.49
2023-10-09T04:14:11.352Z,14.46
2023-10-09T04:17:15.307Z,14.41
2023-10-09T04:20:20.869Z,14.37
2023-10-09T04:23:07.139Z,14.32
2023-10-09T04:25:52.839Z,14.27
2023-10-09T04:28:38.938Z,14.24
2023-10-09T04:31:33.425Z,14.20
2023-10-09T04:34:23.417Z,14.16
2023-10-09T04:37:14.834Z,14.16
2023-10-09T04:40:13.299Z,14.18
2023-10-09T04:43:07.284Z,14.18
2023-10-09T04:46:09.321Z,14.16
2023-10-09T04:48:54.605Z,14.13
2023-10-09T04:51:59.988Z,14.11
2023-10-09T04:55:11.736Z,14.11
2023-10-09T04:58:09.732Z,14.09
2023-10-09T05:00:58.600Z,14.07
2023-10-09T05:03:44.727Z,14.09
2023-10-09T05:06:56.559Z,14.16
2023-10-09T05:09:57.059Z,14.21
2023-10-09T05:12:48.047Z,14.24
2023-10-09T05:15:35.954Z,14.23
2023-10-09T05:18:28.716Z,14.24
2023-10-09T05:21:14.619Z,14.23
2023-10-09T05:24:13.324Z,14.24
2023-10-09T05:27:18.788Z,14.25
2023-10-09T05:30:31.159Z,14.25
2023-10-09T05:33:34.891Z,14.27
2023-10-09T05:36:26.305Z,14.30
2023-10-09T05:39:19.197Z,14.32
2023-10-09T05:42:11.139Z,14.35
2023-10-09T05:45:15.071Z,14.39
2023-10-09T05:48:00.789Z,14.41
2023-10-09T05:51:04.690Z,14.41
2023-10-09T05:54:10.558Z,14.45
2023-10-09T05:57:21.961Z,14.43
2023-10-09T06:00:26.928Z,14.36
2023-10-09T06:03:22.047Z,14.26
2023-10-09T06:06:09.133Z,14.11
2023-10-09T06:09:13.369Z,14.00
2023-10-09T06:12:19.345Z,13.86
2023-10-09T06:15:20.913Z,13.74
2023-10-09T06:18:25.192Z,13.61
2023-10-09T06:21:30.906Z,13.47
2023-10-09T06:24:16.922Z,13.32
2023-10-09T06:27:02.418Z,13.23
2023-10-09T06:29:50.874Z,13.26
2023-10-09T06:32:38.440Z,13.25
2023-10-09T06:35:24.096Z,13.17
2023-10-09T06:38:23.107Z,13.11
2023-10-09T06:41:08.532Z,13.04
2023-10-09T06:43:54.574Z,12.93
2023-10-09T06:46:46.067Z,12.83
2023-10-09T06:49:34.406Z,12.71
2023-10-09T06:52:39.673Z,12.63
2023-10-09T06:55:38.109Z,12.55
2023-10-09T06:58:29.764Z,12.47
2023-10-09T07:01:26.534Z,12.41
2023-10-09T07:04:34.150Z,12.43
2023-10-09T07:07:22.205Z,12.37
2023-10-09T07:10:26.736Z,12.34
2023-10-09T07:13:12.446Z,12.34
2023-10-09T07:16:16.603Z,12.51
2023-10-09T07:19:10.924Z,12.69
2023-10-09T07:21:56.578Z,12.71
2023-10-09T07:24:45.050Z,12.79
2023-10-09T07:27:51.149Z,12.83
2023-10-09T07:30:38.204Z,12.81
2023-10-09T07:33:32.431Z,12.93
2023-10-09T07:36:30.660Z,13.05
2023-10-09T07:39:18.233Z,13.18
2023-10-09T07:42:28.014Z,13.27
2023-10-09T07:45:19.604Z,13.36
2023-10-09T07:48:06.493Z,13.46
2023-10-09T07:50:58.504Z,13.53
2023-10-09T07:53:47.030Z,13.64
2023-10-09T07:56:39.648Z,13.70
2023-10-09T07:59:25.162Z,13.78
2023-10-09T08:02:14.895Z,13.83
2023-10-09T08:05:06.312Z,13.87
2023-10-09T08:08:27.057Z,13.96
2023-10-09T08:11:56.336Z,14.01
2023-10-09T08:14:44.716Z,14.06
2023-10-09T08:17:30.268Z,14.11
2023-10-09T08:20:18.573Z,14.17
2023-10-09T08:23:06.291Z,14.22
2023-10-09T08:26:11.694Z,14.25
2023-10-09T08:29:16.352Z,14.25
2023-10-09T08:34:18.799Z,14.31
2023-10-09T08:35:31.224Z,14.32
2023-10-09T08:38:24.519Z,14.33
2023-10-09T08:41:24.341Z,14.34
2023-10-09T08:44:13.836Z,14.35
2023-10-09T08:47:00.183Z,14.37
2023-10-09T08:49:47.015Z,14.39
2023-10-09T08:52:33.452Z,14.44
2023-10-09T08:55:18.832Z,14.52
2023-10-09T08:58:11.744Z,14.59
2023-10-09T09:01:00.067Z,14.67
2023-10-09T09:03:45.627Z,14.72
2023-10-09T09:06:42.347Z,14.78
2023-10-09T09:09:31.426Z,14.85
2023-10-09T09:12:16.888Z,14.92
2023-10-09T09:15:04.112Z,15.05
2023-10-09T09:17:52.779Z,15.14
2023-10-09T09:20:41.574Z,15.23
2023-10-09T09:23:27.772Z,15.29
2023-10-09T09:26:13.652Z,15.35
2023-10-09T09:28:59.445Z,15.40
2023-10-09T09:32:13.090Z,15.44
2023-10-09T09:34:58.885Z,15.46
2023-10-09T09:37:54.953Z,15.51
2023-10-09T09:40:42.762Z,15.56
2023-10-09T09:43:32.298Z,15.61
2023-10-09T09:46:21.731Z,15.68
2023-10-09T09:49:22.928Z,15.76
2023-10-09T09:52:12.805Z,15.84
2023-10-09T09:54:59.624Z,15.88
2023-10-09T09:57:53.347Z,15.92
2023-10-09T10:00:42.596Z,15.95
2023-10-09T10:03:35.629Z,16.03
2023-10-09T10:06:22.638Z,16.04
2023-10-09T10:09:08.622Z,16.08
2023-10-09T10:11:54.258Z,16.10
2023-10-09T10:15:00.781Z,16.14
2023-10-09T10:18:00.558Z,16.20
2023-10-09T10:21:17.653Z,16.23
2023-10-09T10:24:13.114Z,16.25
2023-10-09T10:27:10.909Z,16.32
2023-10-09T10:30:15.084Z,16.39
2023-10-09T10:33:13.738Z,16.42
2023-10-09T10:36:07.273Z,16.44
2023-10-09T10:39:20.849Z,16.47
2023-10-09T10:42:08.055Z,16.53
2023-10-09T10:44:55.062Z,16.54
2023-10-09T10:47:41.750Z,16.58
2023-10-09T10:50:33.160Z,16.63
2023-10-09T10:53:20.720Z,16.70
2023-10-09T10:56:15.213Z,16.79
2023-10-09T10:59:06.731Z,16.81
2023-10-09T11:02:02.652Z,16.84
2023-10-09T11:04:55.065Z,16.84
2023-10-09T11:07:42.169Z,16.88
2023-10-09T11:10:29.604Z,16.93
2023-10-09T11:13:32.214Z,17.01
2023-10-09T11:16:42.350Z,17.01
2023-10-09T11:19:28.603Z,17.04
2023-10-09T11:22:14.531Z,17.09
2023-10-09T11:25:20.730Z,17.18
2023-10-09T11:28:32.518Z,17.28
2023-10-09T11:31:18.397Z,17.35
2023-10-09T11:34:03.957Z,17.42
2023-10-09T11:36:57.038Z,17.49
2023-10-09T11:39:54.989Z,17.54
2023-10-09T11:42:50.389Z,17.62
2023-10-09T11:45:39.225Z,17.68
2023-10-09T11:48:30.465Z,17.74
2023-10-09T11:51:22.510Z,17.79
2023-10-09T11:54:09.983Z,17.84
2023-10-09T11:56:56.656Z,17.88
2023-10-09T11:59:42.999Z,17.93
2023-10-09T12:02:28.747Z,18.00
2023-10-09T12:05:20.511Z,18.05
2023-10-09T12:08:09.789Z,18.08
2023-10-09T12:10:56.853Z,18.13
2023-10-09T12:13:45.369Z,18.14
2023-10-09T12:16:34.362Z,18.12
2023-10-09T12:19:20.087Z,18.12
2023-10-09T12:22:17.403Z,18.18
2023-10-09T12:25:10.547Z,18.29
2023-10-09T12:27:57.584Z,18.37
2023-10-09T12:30:43.426Z,18.40
2023-10-09T12:33:30.178Z,18.47
2023-10-09T12:36:21.011Z,18.54
2023-10-09T12:39:07.151Z,18.66
2023-10-09T12:41:55.381Z,18.78
2023-10-09T12:44:41.185Z,18.95
2023-10-09T12:47:27.851Z,19.11
2023-10-09T12:50:15.333Z,19.34
2023-10-09T12:53:08.058Z,19.52
2023-10-09T12:55:57.765Z,19.71
2023-10-09T12:58:53.998Z,19.85
2023-10-09T13:01:46.146Z,20.03
2023-10-09T13:04:33.523Z,20.13
2023-10-09T13:07:23.202Z,20.18
2023-10-09T13:10:09.709Z,20.23
2023-10-09T13:12:58.215Z,20.18
2023-10-09T13:15:43.913Z,20.16
2023-10-09T13:18:29.524Z,20.12
2023-10-09T13:21:16.570Z,20.09
2023-10-09T13:24:04.598Z,20.11
2023-10-09T13:26:52.715Z,20.06
2023-10-09T13:29:42.619Z,20.04
2023-10-09T13:32:28.500Z,19.97
2023-10-09T13:35:16.187Z,19.95
2023-10-09T13:38:02.940Z,19.95
2023-10-09T13:40:49.866Z,19.95
2023-10-09T13:43:36.099Z,19.99
2023-10-09T13:46:22.008Z,20.06
2023-10-09T13:49:13.292Z,20.16
2023-10-09T13:52:01.034Z,20.19
2023-10-09T13:54:50.590Z,20.18
2023-10-09T13:57:36.686Z,20.20
2023-10-09T14:00:34.100Z,20.20
2023-10-09T14:03:21.450Z,20.16
2023-10-09T14:06:13.789Z,20.15
2023-10-09T14:09:09.201Z,20.08
2023-10-09T14:12:07.624Z,20.04
2023-10-09T14:14:55.276Z,19.94
2023-10-09T14:17:43.845Z,19.89
2023-10-09T14:20:32.975Z,19.85
2023-10-09T14:23:21.958Z,19.81
2023-10-09T14:26:07.628Z,19.79
2023-10-09T14:28:55.043Z,19.78
2023-10-09T14:31:40.897Z,19.70
2023-10-09T14:34:30.487Z,19.60
2023-10-09T14:37:16.451Z,19.47
2023-10-09T14:40:02.402Z,19.32
2023-10-09T14:42:48.037Z,19.24
2023-10-09T14:45:37.853Z,19.14
2023-10-09T14:48:31.835Z,19.02
2023-10-09T14:51:17.325Z,19.01
2023-10-09T14:54:03.262Z,18.91
2023-10-09T14:56:49.137Z,18.86
2023-10-09T14:59:34.923Z,18.82
2023-10-09T15:02:20.775Z,18.80
2023-10-09T15:05:06.594Z,18.62
2023-10-09T15:07:54.246Z,18.50
2023-10-09T15:10:52.806Z,18.37
2023-10-09T15:13:40.803Z,18.28
2023-10-09T15:16:31.927Z,18.14
2023-10-09T15:19:18.012Z,18.03
2023-10-09T15:22:09.598Z,17.86
2023-10-09T15:24:55.587Z,17.77
2023-10-09T15:27:47.304Z,17.65
2023-10-09T15:30:34.938Z,17.61
2023-10-09T15:33:22.133Z,17.59
2023-10-09T15:36:12.989Z,17.58
2023-10-09T15:39:00.621Z,17.59
2023-10-09T15:41:50.061Z,17.53
2023-10-09T15:44:38.268Z,17.49
2023-10-09T15:47:24.067Z,17.41
2023-10-09T15:50:11.344Z,17.35
2023-10-09T15:52:56.889Z,17.26
2023-10-09T15:55:42.393Z,17.22
2023-10-09T15:58:27.705Z,17.09
2023-10-09T16:01:21.144Z,16.99
2023-10-09T16:04:11.494Z,16.84
2023-10-09T16:06:58.278Z,16.69
2023-10-09T16:09:43.870Z,16.55
2023-10-09T16:12:32.077Z,16.46
2023-10-09T16:15:18.467Z,16.40
2023-10-09T16:18:07.744Z,16.33
2023-10-09T16:20:53.400Z,16.25
2023-10-09T16:23:39.313Z,16.24
2023-10-09T16:26:25.897Z,16.20
2023-10-09T16:29:11.347Z,16.20
2023-10-09T16:31:56.925Z,16.19
2023-10-09T16:34:42.311Z,16.15
2023-10-09T16:37:27.814Z,16.12
2023-10-09T16:40:14.804Z,16.10
2023-10-09T16:43:02.290Z,16.08
2023-10-09T16:45:47.965Z,16.03
2023-10-09T16:48:33.424Z,15.96
2023-10-09T16:51:22.941Z,15.93
2023-10-09T16:54:08.415Z,15.89
2023-10-09T16:56:56.697Z,15.85
2023-10-09T16:59:43.198Z,15.80
2023-10-09T17:02:28.987Z,15.76
2023-10-09T17:05:14.942Z,15.70
2023-10-09T17:08:01.550Z,15.65
2023-10-09T17:10:46.950Z,15.58
2023-10-09T17:13:32.466Z,15.53
2023-10-09T17:16:20.403Z,15.45
2023-10-09T17:19:07.268Z,15.35
2023-10-09T17:21:53.178Z,15.26
2023-10-09T17:24:43.038Z,15.16
2023-10-09T17:27:30.981Z,15.07
2023-10-09T17:30:17.006Z,14.99
2023-10-09T17:33:02.751Z,14.89
2023-10-09T17:35:48.449Z,14.79
2023-10-09T17:38:34.581Z,14.69
2023-10-09T17:41:22.802Z,14.61
2023-10-09T17:44:08.837Z,14.52
2023-10-09T17:46:54.666Z,14.42
2023-10-09T17:49:40.206Z,14.34
2023-10-09T17:52:25.963Z,14.25
2023-10-09T17:55:14.232Z,14.18
2023-10-09T17:58:01.074Z,14.13
2023-10-09T18:00:47.292Z,14.06
2023-10-09T18:03:32.902Z,14.02
2023-10-09T18:06:20.046Z,13.94
2023-10-09T18:09:17.000Z,13.87
2023-10-09T18:12:04.466Z,13.83
2023-10-09T18:14:55.295Z,13.72
2023-10-09T18:17:41.636Z,13.65
2023-10-09T18:20:28.891Z,13.59
2023-10-09T18:23:14.500Z,13.53
2023-10-09T18:26:02.485Z,13.51
2023-10-09T18:28:49.364Z,13.47
2023-10-09T18:31:37.184Z,13.42
2023-10-09T18:34:26.940Z,13.41
2023-10-09T18:37:13.184Z,13.35
2023-10-09T18:40:00.410Z,13.32
2023-10-09T18:42:46.176Z,13.28
2023-10-09T18:45:35.260Z,13.24
2023-10-09T18:48:27.968Z,13.24
2023-10-09T18:51:15.617Z,13.24
2023-10-09T18:54:05.561Z,13.19
2023-10-09T18:56:51.170Z,13.19
2023-10-09T18:59:36.584Z,13.15
2023-10-09T19:02:22.330Z,13.13
2023-10-09T19:05:11.590Z,13.07
2023-10-09T19:07:57.710Z,13.05
2023-10-09T19:10:44.335Z,13.04
2023-10-09T19:13:30.924Z,12.98
2023-10-09T19:16:17.110Z,12.94
2023-10-09T19:19:06.055Z,12.91
2023-10-09T19:21:54.268Z,12.86
2023-10-09T19:24:41.586Z,12.84
2023-10-09T19:27:27.409Z,12.88
2023-10-09T19:30:19.677Z,13.03
2023-10-09T19:33:07.066Z,13.14
2023-10-09T19:35:52.604Z,13.10
2023-10-09T19:38:51.420Z,13.08
2023-10-09T19:41:37.044Z,13.04
2023-10-09T19:44:22.797Z,13.01
2023-10-09T19:47:08.140Z,13.05
2023-10-09T19:49:53.753Z,13.02
2023-10-09T19:52:40.868Z,13.01
2023-10-09T19:55:26.517Z,13.01
2023-10-09T19:58:14.065Z,13.01
2023-10-09T20:00:59.781Z,13.01
2023-10-09T20:03:46.035Z,12.99
2023-10-09T20:06:32.245Z,12.91
2023-10-09T20:09:18.421Z,12.84
2023-10-09T20:12:04.227Z,12.81
2023-10-09T20:14:49.925Z,12.80
2023-10-09T20:17:35.331Z,12.74
2023-10-09T20:20:23.874Z,12.72
2023-10-09T20:23:09.668Z,12.72
2023-10-09T20:26:05.782Z,12.72
2023-10-09T20:28:51.500Z,12.73
2023-10-09T20:31:38.709Z,12.82
2023-10-09T20:34:25.664Z,12.85
2023-10-09T20:37:11.770Z,12.78
2023-10-09T20:39:59.961Z,12.75
2023-10-09T20:42:47.353Z,12.68
2023-10-09T20:45:34.457Z,12.66
2023-10-09T20:48:19.882Z,12.70
2023-10-09T20:51:06.017Z,12.69
2023-10-09T20:53:51.478Z,12.76
2023-10-09T20:56:38.020Z,12.79
2023-10-09T20:59:24.055Z,12.85
2023-10-09T21:02:09.488Z,12.83
2023-10-09T21:04:55.461Z,12.79
2023-10-09T21:07:42.369Z,12.68
2023-10-09T21:10:27.973Z,12.61
2023-10-09T21:13:13.542Z,12.51
2023-10-09T21:16:00.042Z,12.48
2023-10-09T21:18:47.261Z,12.44
2023-10-09T21:21:32.885Z,12.36
2023-10-09T21:24:18.366Z,12.31
2023-10-09T21:27:04.528Z,12.25
2023-10-09T21:29:50.368Z,12.21
2023-10-09T21:32:42.346Z,12.16
2023-10-09T21:35:29.701Z,12.08
2023-10-09T21:38:14.885Z,12.02
2023-10-09T21:41:02.356Z,11.99
2023-10-09T21:43:48.171Z,11.96
2023-10-09T21:46:33.807Z,11.90
2023-10-09T21:49:19.365Z,11.89
2023-10-09T21:52:05.136Z,11.85
2023-10-09T21:54:50.568Z,11.82
2023-10-09T21:57:36.844Z,11.87
2023-10-09T22:00:32.116Z,11.91
2023-10-09T22:03:18.483Z,12.01
2023-10-09T22:06:05.773Z,12.08
2023-10-09T22:08:51.454Z,12.11
2023-10-09T22:11:37.163Z,12.12
2023-10-09T22:14:23.933Z,12.11
2023-10-09T22:17:09.629Z,12.13
2023-10-09T22:19:55.481Z,12.15
2023-10-09T22:22:45.266Z,12.16
2023-10-09T22:25:31.356Z,12.19
2023-10-09T22:28:16.701Z,12.27
2023-10-09T22:31:05.311Z,12.34
2023-10-09T22:33:51.353Z,12.43
2023-10-09T22:36:53.193Z,12.47
2023-10-09T22:39:42.420Z,12.50
2023-10-09T22:42:28.496Z,12.56
2023-10-09T22:45:15.561Z,12.57
2023-10-09T22:48:04.824Z,12.62
2023-10-09T22:50:59.784Z,12.68
2023-10-09T22:53:47.936Z,12.71
2023-10-09T22:56:34.238Z,12.73
2023-10-09T22:59:27.889Z,12.74
2023-10-09T23:02:24.512Z,12.82
2023-10-09T23:05:14.010Z,12.84
2023-10-09T23:08:03.223Z,12.87
2023-10-09T23:10:54.577Z,12.93
2023-10-09T23:13:54.796Z,12.98
2023-10-09T23:16:54.086Z,13.03
2023-10-09T23:19:39.516Z,13.06
2023-10-09T23:22:33.962Z,13.06
2023-10-09T23:25:35.902Z,13.07
2023-10-09T23:28:40.188Z,13.05
2023-10-09T23:31:36.885Z,13.06
2023-10-09T23:34:32.937Z,13.06
2023-10-09T23:37:18.628Z,13.05
2023-10-09T23:40:28.425Z,13.04
2023-10-09T23:43:32.173Z,13.05
2023-10-09T23:46:25.003Z,13.06
2023-10-09T23:49:19.191Z,13.05
2023-10-09T23:52:06.931Z,13.02
2023-10-09T23:55:01.839Z,13.01
2023-10-09T23:57:47.931Z,12.99
